Flugplatz Jesenwang

Für EDMJ sind keine METAR/TAF Berichte vorhanden.
Es werden die Flugwettermeldungen vom Flugplatz Oberpfaffenhofen in 15 km Entfernung angezeigt.

Bericht für EDMO

vom 29.09. um 12:50 UTC

Wind 3 kt aus 90°

Sichtweite 10 km oder mehr

schwacher Regen

gering bewölkt in 1200 ft

aufgebrochene Bewölkung in 4500 ft

Temperatur 9.0°C

Taupunkt 7.0°C

Luftfeuchtigkeit 87%

Luftdruck 1003 hPa

EDMO 291250Z 09003KT 050V120 9999 -RA FEW012 BKN045 09/07 Q1003

Prognose für EDMO

vom 29.09. um 11:00 UTC

Zwischen 12:00 UTC und 21:00 UTC

variable Windrichtung mit 3 kt

Sichtweite 10 km oder mehr

gering bewölkt in 1500 ft

aufgebrochene Bewölkung in 4500 ft


Zwischen 12:00 UTC und 15:00 UTC zeitweise

Wind 5 kt aus 80°


Zwischen 12:00 UTC und 18:00 UTC zeitweise mit einer Wahrscheinlichkeit von 30%

Regen

aufgebrochene Bewölkung in 1200 ft

TAF EDMO 291100Z 2912/2921 VRB03KT 9999 FEW015 BKN045 PROB30 TEMPO 2912/2918 RA BKN012 TEMPO 2912/2915 08005KT
Impressum